Observations for NAPLES CAPODICHINO, Italy (LIRN)

LIRN 160750Z 02007KT 270V050 9999 BKN060 15/07 Q1019 NOSIG  
LIRN 160720Z VRB06KT 9999 BKN060 15/06 Q1019 NOSIG  
LIRN 160650Z 06009KT 9999 BKN060 15/06 Q1019 NOSIG  
LIRN 160620Z 05008KT 9999 BKN060 14/06 Q1019 NOSIG  
LIRN 160550Z 04007KT 9999 BKN070 14/06 Q1019 NOSIG  
LIRN 160520Z 02005KT 9999 SCT060 13/06 Q1019 NOSIG  
LIRN 160450Z 02006KT CAVOK 13/06 Q1019 NOSIG
LIRN 160420Z 01004KT CAVOK 13/06 Q1019 NOSIG
LIRN 160350Z 01005KT CAVOK 12/05 Q1019 NOSIG
LIRN 160320Z 36006KT CAVOK 13/06 Q1019 NOSIG
LIRN 160250Z 36005KT CAVOK 13/05 Q1019 NOSIG
LIRN 160220Z 36005KT CAVOK 13/06 Q1019 NOSIG
LIRN 160150Z 01005KT 320V060 CAVOK 13/06 Q1019 NOSIG
LIRN 160120Z 04006KT 360V060 CAVOK 13/06 Q1020 NOSIG
LIRN 160050Z 03006KT CAVOK 12/06 Q1020 NOSIG
LIRN 160020Z 03005KT CAVOK 12/06 Q1020 NOSIG
LIRN 152350Z 04007KT CAVOK 12/06 Q1020 NOSIG
LIRN 152320Z 02006KT CAVOK 12/06 Q1020 NOSIG
LIRN 152250Z 06006KT CAVOK 13/06 Q1020 NOSIG
LIRN 152220Z 06007KT CAVOK 13/06 Q1020 NOSIG
LIRN 152150Z 07007KT 9999 FEW050 14/05 Q1020 NOSIG  
LIRN 152120Z 06006KT 9999 FEW050 13/05 Q1020 NOSIG  
LIRN 152050Z 06006KT 9999 FEW050 14/06 Q1020 NOSIG  
LIRN 152020Z 06006KT 9999 FEW050 14/07 Q1020 NOSIG  
LIRN 151950Z 06008KT 9999 FEW050 15/07 Q1020 NOSIG  
LIRN 151920Z 07006KT 040V100 9999 FEW050 15/07 Q1020 NOSIG  
LIRN 151850Z 07007KT 9999 FEW050 SCT080 15/07 Q1020 NOSIG   
LIRN 151820Z 08007KT 050V110 9999 FEW050 SCT080 16/07 Q1020 NOSIG   
LIRN 151750Z 07007KT 9999 FEW050 SCT080 16/08 Q1020 NOSIG   
LIRN 151720Z 07004KT 9999 FEW050 SCT080 16/09 Q1020 NOSIG   
LIRN 151650Z 09004KT 060V130 9999 FEW050 SCT080 17/09 Q1020 NOSIG   
LIRN 151620Z 06005KT 9999 FEW050 SCT080 16/09 Q1021 NOSIG   
LIRN 151550Z 06006KT 9999 FEW050 17/09 Q1021 NOSIG  
LIRN 151520Z 06006KT 9999 SCT050 17/09 Q1021 NOSIG  
LIRN 151450Z 06006KT 9999 SCT050 18/08 Q1021 NOSIG  
LIRN 151420Z 05008KT 9999 SCT050 18/09 Q1021 NOSIG  
LIRN 151350Z 05010KT 010V070 9999 FEW050 19/09 Q1021 NOSIG  
LIRN 151320Z 06004KT 010V100 9999 FEW050 20/07 Q1021 NOSIG  
LIRN 151250Z 05004KT 020V090 9999 FEW050 20/07 Q1021 NOSIG  
LIRN 151220Z 07005KT 030V120 CAVOK 20/07 Q1021 NOSIG
LIRN 151150Z VRB04KT CAVOK 20/08 Q1021 NOSIG
LIRN 151120Z VRB02KT CAVOK 20/07 Q1022 NOSIG
LIRN 151050Z 02005KT 350V050 CAVOK 19/08 Q1022 NOSIG
LIRN 151020Z 04005KT 360V110 CAVOK 19/08 Q1023 NOSIG
LIRN 150950Z VRB04KT CAVOK 18/09 Q1023 NOSIG
LIRN 150920Z 02005KT CAVOK 18/09 Q1023 NOSIG
LIRN 150850Z 04006KT CAVOK 17/09 Q1023 NOSIG
LIRN 150820Z 03005KT CAVOK 16/09 Q1023 NOSIG
LIRN 150750Z 01006KT 350V050 CAVOK 16/10 Q1023 NOSIG
LIRN 150720Z 35003KT 320V060 CAVOK 14/09 Q1023 NOSIG